LFSX 301030Z AUTO VRB04KT CAVOK 22/07 Q1019

ElémentsDécodage
LFSX Station météo située sur l'aérodrome de LUXEUIL Saint-Sauveur
301030Z émis le 30 du mois à 10h30 UTC
AUTO Bulletin édité par un automate
VRB04KT vent de direction variable, 04 noeuds
CAVOK Ceiling And Visibility OK
- Visibilité de 10 Km ou plus
- Pas de nuage au-dessous de 1500m ou au-dessous de l'altitude minimale du secteur la plus élevée (si>1500m) et absence de CB
- pas de temps présent significatif
22/07 température 22°C, point de rosée 07°C
 soit une humidité relative de 38%
Q1019 la pression au niveau de la mer (QNH) est de 1019 hPa